createdAt,value
2022-11-25T05:30:37.178Z,8.23
2022-11-25T05:31:37.003Z,8.11
2022-11-25T05:32:36.998Z,8.18
2022-11-25T05:33:37.004Z,8.20
2022-11-25T05:34:37.362Z,8.11
2022-11-25T05:35:37.051Z,8.20
2022-11-25T05:36:36.970Z,8.08
2022-11-25T05:37:36.931Z,8.12
2022-11-25T05:38:36.957Z,8.15
2022-11-25T05:39:36.959Z,8.18
2022-11-25T05:40:36.926Z,8.07
2022-11-25T05:41:36.962Z,8.22
2022-11-25T05:42:36.912Z,8.18
2022-11-25T05:43:36.901Z,8.20
2022-11-25T05:44:37.183Z,8.19
2022-11-25T05:45:36.901Z,8.18
2022-11-25T05:46:36.909Z,8.18
2022-11-25T05:47:36.831Z,8.20
2022-11-25T05:48:36.830Z,8.15
2022-11-25T05:49:36.815Z,8.23
2022-11-25T05:50:36.901Z,8.18
2022-11-25T05:51:36.841Z,8.33
2022-11-25T05:52:36.802Z,8.22
2022-11-25T05:53:36.827Z,8.30
2022-11-25T05:54:36.941Z,8.20
2022-11-25T05:55:36.754Z,8.30
2022-11-25T05:56:36.758Z,8.28
2022-11-25T05:57:36.731Z,8.23
2022-11-25T05:58:36.727Z,8.30
2022-11-25T05:59:36.698Z,8.29
2022-11-25T06:00:36.706Z,8.36
2022-11-25T06:01:36.696Z,8.30
2022-11-25T06:02:36.834Z,8.33
2022-11-25T06:03:36.750Z,8.29
2022-11-25T06:04:36.909Z,8.26
2022-11-25T06:05:36.645Z,8.29
2022-11-25T06:06:36.629Z,8.28
2022-11-25T06:07:36.714Z,8.26
2022-11-25T06:08:36.609Z,8.37
2022-11-25T06:09:36.599Z,8.28
2022-11-25T06:10:36.602Z,8.36
2022-11-25T06:11:36.584Z,8.37
2022-11-25T06:12:36.641Z,8.38
2022-11-25T06:13:36.553Z,8.40
2022-11-25T06:14:36.807Z,8.38
2022-11-25T06:15:36.568Z,8.33
2022-11-25T06:16:36.532Z,8.40
2022-11-25T06:17:36.562Z,8.41
2022-11-25T06:18:36.516Z,8.34
2022-11-25T06:19:36.562Z,8.33
2022-11-25T06:20:36.508Z,8.36
2022-11-25T06:21:36.492Z,8.40
2022-11-25T06:22:36.471Z,8.33
2022-11-25T06:23:36.467Z,8.34
2022-11-25T06:24:36.740Z,8.28
2022-11-25T06:25:36.429Z,8.44
2022-11-25T06:26:36.451Z,8.26
2022-11-25T06:28:04.417Z,8.28
2022-11-25T06:28:37.390Z,8.28
2022-11-25T06:29:36.424Z,8.29
2022-11-25T06:30:36.489Z,8.26
2022-11-25T06:31:36.434Z,8.22
2022-11-25T06:32:37.570Z,8.25
2022-11-25T06:33:36.360Z,8.29
2022-11-25T06:34:36.536Z,8.30
2022-11-25T06:35:36.318Z,8.26
2022-11-25T06:36:36.348Z,8.26
2022-11-25T06:37:36.320Z,8.25
2022-11-25T06:38:36.285Z,8.26
2022-11-25T06:39:36.282Z,8.20
2022-11-25T06:40:36.275Z,8.25
2022-11-25T06:41:36.276Z,8.25
2022-11-25T06:42:36.248Z,8.18
2022-11-25T06:43:36.236Z,8.18
2022-11-25T06:44:37.396Z,8.28
2022-11-25T06:45:36.207Z,8.26
2022-11-25T06:46:36.231Z,8.25
2022-11-25T06:47:36.227Z,8.19
2022-11-25T06:48:36.213Z,8.29
2022-11-25T06:49:36.172Z,8.26
2022-11-25T06:50:36.175Z,8.26
2022-11-25T06:51:36.209Z,8.23
2022-11-25T06:52:36.144Z,8.25
2022-11-25T06:53:36.160Z,8.29
2022-11-25T06:54:36.327Z,8.20
2022-11-25T06:55:36.121Z,8.29
2022-11-25T06:56:36.118Z,8.30
2022-11-25T06:57:36.092Z,8.20
2022-11-25T06:58:36.640Z,8.26
2022-11-25T06:59:36.110Z,8.28
2022-11-25T07:00:36.095Z,8.30
2022-11-25T07:01:36.083Z,8.26
2022-11-25T07:02:41.716Z,8.23
2022-11-25T07:03:37.023Z,8.23
2022-11-25T07:04:36.341Z,8.28
2022-11-25T07:05:35.999Z,8.28
2022-11-25T07:06:36.008Z,8.23
2022-11-25T07:07:36.049Z,8.23
2022-11-25T07:08:35.972Z,8.30
2022-11-25T07:09:35.997Z,8.26
2022-11-25T07:10:35.942Z,8.34
2022-11-25T07:11:35.942Z,8.29
2022-11-25T07:12:35.955Z,8.26
2022-11-25T07:13:35.914Z,8.25
2022-11-25T07:14:36.314Z,8.20
2022-11-25T07:15:36.001Z,8.28
2022-11-25T07:16:35.883Z,8.30
2022-11-25T07:17:35.868Z,8.25
2022-11-25T07:18:35.888Z,8.33
2022-11-25T07:19:35.853Z,8.34
2022-11-25T07:20:35.848Z,8.38
2022-11-25T07:21:35.842Z,8.28
2022-11-25T07:22:35.834Z,8.26
2022-11-25T07:23:35.805Z,8.29
2022-11-25T07:24:36.142Z,8.34
2022-11-25T07:25:35.789Z,8.37
2022-11-25T07:26:35.789Z,8.34
2022-11-25T07:27:35.775Z,8.36
2022-11-25T07:28:35.757Z,8.30
2022-11-25T07:29:57.865Z,8.43
2022-11-25T07:31:37.014Z,8.33
2022-11-25T07:32:35.733Z,8.28
2022-11-25T07:33:35.719Z,8.28
2022-11-25T07:34:35.690Z,8.33
2022-11-25T07:35:35.669Z,8.30
2022-11-25T07:36:35.710Z,8.30
2022-11-25T07:37:35.653Z,8.28
2022-11-25T07:38:35.683Z,8.18
2022-11-25T07:39:35.958Z,8.29
2022-11-25T07:40:35.681Z,8.25
2022-11-25T07:41:35.609Z,8.20
2022-11-25T07:42:35.607Z,8.22
2022-11-25T07:43:35.585Z,8.12
2022-11-25T07:44:35.620Z,8.08
2022-11-25T07:45:35.631Z,8.11
2022-11-25T07:46:35.641Z,8.07
2022-11-25T07:47:35.540Z,8.16
2022-11-25T07:48:35.550Z,8.04
2022-11-25T07:49:35.793Z,8.01
2022-11-25T07:50:35.520Z,8.02
2022-11-25T07:51:35.524Z,7.97
2022-11-25T07:52:35.568Z,7.97
2022-11-25T07:53:35.541Z,7.87
2022-11-25T07:54:35.539Z,7.93
2022-11-25T07:55:35.500Z,7.97
2022-11-25T07:56:35.554Z,7.87
2022-11-25T07:57:35.439Z,7.85
2022-11-25T07:58:35.468Z,7.89
2022-11-25T07:59:35.798Z,7.89
2022-11-25T08:00:35.401Z,7.92
2022-11-25T08:01:35.513Z,7.95
2022-11-25T08:02:35.496Z,8.02
2022-11-25T08:03:35.587Z,8.02
2022-11-25T08:04:35.376Z,8.10
2022-11-25T08:05:35.351Z,8.05
2022-11-25T08:06:35.390Z,8.11
2022-11-25T08:07:36.884Z,8.02
2022-11-25T08:08:35.322Z,8.00
2022-11-25T08:09:35.608Z,8.07
2022-11-25T08:10:35.430Z,8.04
2022-11-25T08:11:35.318Z,8.00
2022-11-25T08:12:35.296Z,8.12
2022-11-25T08:13:35.277Z,8.01
2022-11-25T08:14:35.285Z,8.01
2022-11-25T08:15:35.275Z,8.18
2022-11-25T08:16:35.226Z,8.18
2022-11-25T08:17:35.252Z,8.04
2022-11-25T08:18:35.214Z,8.15
2022-11-25T08:19:35.614Z,8.10
2022-11-25T08:20:35.198Z,8.28
2022-11-25T08:21:35.187Z,8.38
2022-11-25T08:22:35.200Z,8.44
2022-11-25T08:23:35.174Z,8.48
2022-11-25T08:24:35.151Z,8.53
2022-11-25T08:25:35.182Z,8.65
2022-11-25T08:26:35.153Z,8.76
2022-11-25T08:27:35.173Z,8.86
2022-11-25T08:28:35.161Z,8.92
2022-11-25T08:29:35.544Z,9.08
2022-11-25T08:30:35.107Z,9.15
2022-11-25T08:31:35.197Z,9.32
2022-11-25T08:32:35.091Z,9.38
2022-11-25T08:33:35.118Z,9.39
2022-11-25T08:34:35.073Z,9.47
2022-11-25T08:35:35.138Z,9.64
2022-11-25T08:36:35.015Z,9.72
2022-11-25T08:37:35.006Z,9.79
2022-11-25T08:38:35.044Z,9.79
2022-11-25T08:40:35.979Z,9.89
2022-11-25T08:41:34.977Z,9.93
2022-11-25T08:42:34.987Z,9.89
2022-11-25T08:43:35.004Z,9.79
2022-11-25T08:44:34.941Z,9.89
2022-11-25T08:45:35.032Z,9.96
2022-11-25T08:46:35.153Z,10.01
2022-11-25T08:47:34.952Z,10.05
2022-11-25T08:48:34.891Z,10.02
2022-11-25T08:49:40.473Z,10.01
2022-11-25T08:50:35.894Z,10.08
2022-11-25T08:51:34.948Z,10.01
2022-11-25T08:52:34.925Z,10.14
2022-11-25T08:53:34.852Z,10.12
2022-11-25T08:54:34.835Z,10.22
2022-11-25T08:55:34.847Z,10.32
2022-11-25T08:56:34.827Z,10.33
2022-11-25T08:57:34.800Z,10.52
2022-11-25T08:58:34.806Z,10.64
2022-11-25T08:59:35.032Z,10.59
2022-11-25T09:00:34.771Z,10.61
2022-11-25T09:01:34.812Z,10.55
2022-11-25T09:02:34.781Z,10.67
2022-11-25T09:03:34.767Z,10.73
2022-11-25T09:04:34.727Z,10.68
2022-11-25T09:05:34.704Z,10.70
2022-11-25T09:06:34.712Z,10.74
2022-11-25T09:07:34.772Z,10.84
2022-11-25T09:08:34.668Z,10.78
2022-11-25T09:09:35.235Z,10.76
2022-11-25T09:10:34.658Z,10.84
2022-11-25T09:11:34.684Z,10.84
2022-11-25T09:12:34.659Z,10.86
2022-11-25T09:13:34.680Z,10.84
2022-11-25T09:14:34.662Z,10.85
2022-11-25T09:15:35.631Z,10.89
2022-11-25T09:16:34.650Z,11.04
2022-11-25T09:17:34.580Z,11.04
2022-11-25T09:18:34.599Z,11.09
2022-11-25T09:19:34.992Z,11.14
2022-11-25T09:20:34.540Z,11.18
2022-11-25T09:21:34.559Z,11.21
2022-11-25T09:22:34.518Z,11.33
2022-11-25T09:23:34.507Z,11.33
2022-11-25T09:24:34.504Z,11.46
2022-11-25T09:25:34.487Z,11.42
2022-11-25T09:26:34.468Z,11.49
2022-11-25T09:27:34.484Z,11.51
2022-11-25T09:28:34.455Z,11.69
2022-11-25T09:29:34.887Z,11.58
2022-11-25T09:30:34.467Z,11.60
2022-11-25T09:31:34.510Z,11.67
2022-11-25T09:32:34.414Z,11.58
2022-11-25T09:33:34.407Z,11.65
2022-11-25T09:34:34.665Z,11.64
2022-11-25T09:35:34.391Z,11.79
2022-11-25T09:36:34.385Z,11.85
2022-11-25T09:37:34.353Z,11.76
2022-11-25T09:38:37.682Z,11.70
2022-11-25T09:39:35.875Z,11.75
2022-11-25T09:40:34.318Z,11.85
2022-11-25T09:41:34.343Z,11.80
2022-11-25T09:42:34.305Z,11.75
2022-11-25T09:43:34.289Z,11.70
2022-11-25T09:44:34.286Z,11.85
2022-11-25T09:45:34.269Z,11.76
2022-11-25T09:46:34.291Z,11.79
2022-11-25T09:47:34.297Z,11.76
2022-11-25T09:48:34.249Z,11.85
2022-11-25T09:49:34.354Z,11.79
2022-11-25T09:50:34.218Z,11.99
2022-11-25T09:51:34.205Z,12.01
2022-11-25T09:52:34.226Z,11.88
2022-11-25T09:53:34.221Z,11.98
2022-11-25T09:54:34.180Z,12.13
2022-11-25T09:55:34.184Z,12.19
2022-11-25T09:56:34.147Z,12.24
2022-11-25T09:57:34.141Z,12.39
2022-11-25T09:58:34.151Z,12.41
2022-11-25T09:59:34.411Z,12.47
2022-11-25T10:00:34.109Z,12.41
2022-11-25T10:01:34.113Z,12.49
2022-11-25T10:02:34.201Z,12.45
2022-11-25T10:03:34.207Z,12.47
2022-11-25T10:04:34.086Z,12.46
2022-11-25T10:05:34.063Z,12.47
2022-11-25T10:06:34.119Z,12.47
2022-11-25T10:07:34.029Z,12.49
2022-11-25T10:08:34.028Z,12.50
2022-11-25T10:09:34.283Z,12.54
2022-11-25T10:10:34.031Z,12.54
2022-11-25T10:11:34.011Z,12.59
2022-11-25T10:12:33.979Z,12.54
2022-11-25T10:13:34.060Z,12.50
2022-11-25T10:14:33.964Z,12.52
2022-11-25T10:15:33.958Z,12.57
2022-11-25T10:16:33.931Z,12.53
2022-11-25T10:17:33.949Z,12.62
2022-11-25T10:18:33.955Z,12.68
2022-11-25T10:19:34.271Z,12.60
2022-11-25T10:20:33.896Z,12.53
2022-11-25T10:21:33.883Z,12.57
2022-11-25T10:22:33.871Z,12.68
2022-11-25T10:23:33.863Z,12.50
2022-11-25T10:24:38.403Z,12.32
2022-11-25T10:25:34.838Z,12.42
2022-11-25T10:26:34.515Z,12.45
2022-11-25T10:27:33.820Z,12.57
2022-11-25T10:28:33.802Z,12.54
2022-11-25T10:29:33.811Z,12.62
2022-11-25T10:30:33.801Z,12.64
2022-11-25T10:31:33.835Z,12.79
2022-11-25T10:32:33.762Z,12.70
2022-11-25T10:33:33.751Z,12.71
2022-11-25T10:34:34.003Z,12.74
2022-11-25T10:35:33.745Z,12.70
2022-11-25T10:36:33.803Z,12.72
2022-11-25T10:37:33.707Z,12.67
2022-11-25T10:38:33.694Z,12.60
2022-11-25T10:39:33.688Z,12.64
2022-11-25T10:40:33.678Z,12.57
2022-11-25T10:41:33.685Z,12.62
2022-11-25T10:42:33.677Z,12.60
2022-11-25T10:43:33.711Z,12.75
2022-11-25T10:44:33.784Z,12.71
2022-11-25T10:45:33.629Z,12.74
2022-11-25T10:46:57.121Z,12.71
2022-11-25T10:47:34.642Z,12.74
2022-11-25T10:48:33.589Z,12.82
2022-11-25T10:49:33.600Z,12.77
2022-11-25T10:50:33.619Z,12.74
2022-11-25T10:51:33.562Z,12.72
2022-11-25T10:52:33.572Z,12.79
2022-11-25T10:53:34.059Z,12.79
2022-11-25T10:54:33.590Z,12.70
2022-11-25T10:55:33.573Z,12.71
2022-11-25T10:56:33.506Z,12.72
2022-11-25T10:57:33.487Z,12.59
2022-11-25T10:58:33.514Z,12.54
2022-11-25T10:59:33.492Z,12.49
2022-11-25T11:00:33.477Z,12.47
2022-11-25T11:01:33.540Z,12.62
2022-11-25T11:02:33.464Z,12.54
2022-11-25T11:03:33.448Z,12.60
2022-11-25T11:04:33.767Z,12.49
2022-11-25T11:05:33.423Z,12.45
2022-11-25T11:06:33.442Z,12.42
2022-11-25T11:07:33.517Z,12.39
2022-11-25T11:08:33.395Z,12.46
2022-11-25T11:09:33.360Z,12.47
2022-11-25T11:10:33.392Z,12.54
2022-11-25T11:11:33.336Z,12.62
2022-11-25T11:12:33.337Z,12.59
2022-11-25T11:13:33.433Z,12.53
2022-11-25T11:14:33.497Z,12.54
2022-11-25T11:15:33.353Z,12.62
2022-11-25T11:16:33.395Z,12.60
2022-11-25T11:17:38.260Z,12.68
2022-11-25T11:18:34.260Z,12.67
2022-11-25T11:19:34.067Z,12.57
2022-11-25T11:20:33.248Z,12.62
2022-11-25T11:21:33.227Z,12.72
2022-11-25T11:22:33.233Z,12.71
2022-11-25T11:23:33.232Z,12.74
2022-11-25T11:24:33.198Z,12.70
2022-11-25T11:25:33.185Z,12.71
2022-11-25T11:26:33.169Z,12.72
2022-11-25T11:27:33.162Z,12.59
2022-11-25T11:28:33.162Z,12.67
2022-11-25T11:29:33.175Z,12.60
2022-11-25T11:30:33.161Z,12.57
2022-11-25T11:31:33.171Z,12.42
2022-11-25T11:32:33.140Z,12.39
2022-11-25T11:33:33.150Z,12.47
2022-11-25T11:34:33.091Z,12.37
2022-11-25T11:35:36.467Z,12.35
2022-11-25T11:36:34.071Z,12.47
2022-11-25T11:37:33.078Z,12.35
2022-11-25T11:38:33.103Z,12.13
2022-11-25T11:39:33.038Z,12.07
2022-11-25T11:40:33.021Z,12.09
2022-11-25T11:41:33.015Z,12.01
2022-11-25T11:42:33.040Z,12.14
2022-11-25T11:43:33.037Z,12.07
2022-11-25T11:44:32.983Z,12.17
2022-11-25T11:45:32.970Z,12.17
2022-11-25T11:46:33.055Z,12.20
2022-11-25T11:47:32.950Z,12.20
2022-11-25T11:48:33.022Z,12.27
2022-11-25T11:49:32.975Z,12.34
2022-11-25T11:50:32.970Z,12.39
2022-11-25T11:51:32.897Z,12.29
2022-11-25T11:52:32.901Z,12.27
2022-11-25T11:53:32.894Z,12.31
2022-11-25T11:54:32.884Z,12.38
2022-11-25T11:55:32.860Z,12.31
2022-11-25T11:56:35.615Z,12.29
2022-11-25T11:57:32.876Z,12.45
2022-11-25T11:58:32.837Z,12.47
2022-11-25T11:59:32.847Z,12.27
2022-11-25T12:00:32.824Z,12.31
2022-11-25T12:01:32.897Z,12.35
2022-11-25T12:02:32.911Z,12.35
2022-11-25T12:03:32.886Z,12.39
2022-11-25T12:04:32.760Z,12.41
2022-11-25T12:05:32.776Z,12.41
2022-11-25T12:06:32.734Z,12.41
2022-11-25T12:07:32.885Z,12.49
2022-11-25T12:08:32.722Z,12.38
2022-11-25T12:09:32.728Z,12.37
2022-11-25T12:10:32.718Z,12.46
2022-11-25T12:11:32.706Z,12.42
2022-11-25T12:12:32.680Z,12.29
2022-11-25T12:13:32.709Z,12.38
2022-11-25T12:14:32.657Z,12.39
2022-11-25T12:15:32.660Z,12.28
2022-11-25T12:16:32.705Z,12.34
2022-11-25T12:17:32.677Z,12.45
2022-11-25T12:18:32.614Z,12.29
2022-11-25T12:19:32.618Z,12.32
2022-11-25T12:20:32.592Z,12.45
2022-11-25T12:21:35.291Z,12.39
2022-11-25T12:22:32.567Z,12.38
2022-11-25T12:23:32.627Z,12.37
2022-11-25T12:24:32.609Z,12.39
2022-11-25T12:25:32.539Z,12.34
2022-11-25T12:26:32.593Z,12.39
2022-11-25T12:27:32.618Z,12.38
2022-11-25T12:28:32.510Z,12.41
2022-11-25T12:29:32.542Z,12.42
2022-11-25T12:30:32.512Z,12.41
2022-11-25T12:31:32.499Z,12.45
2022-11-25T12:32:32.460Z,12.35
2022-11-25T12:33:32.457Z,12.41
2022-11-25T12:34:32.476Z,12.45
2022-11-25T12:35:32.431Z,12.49
2022-11-25T12:36:32.420Z,12.31
2022-11-25T12:37:32.487Z,12.34
2022-11-25T12:38:32.412Z,12.31
2022-11-25T12:39:32.413Z,12.37
2022-11-25T12:40:32.407Z,12.27
2022-11-25T12:41:32.364Z,12.41
2022-11-25T12:42:32.393Z,12.27
2022-11-25T12:43:32.355Z,12.29
2022-11-25T12:44:32.370Z,12.27
2022-11-25T12:45:32.375Z,12.28
2022-11-25T12:46:32.319Z,12.34
2022-11-25T12:47:35.071Z,12.21
2022-11-25T12:48:33.500Z,12.17
2022-11-25T12:49:32.297Z,12.12
2022-11-25T12:50:32.299Z,12.24
2022-11-25T12:51:32.308Z,12.31
2022-11-25T12:52:32.250Z,12.24
2022-11-25T12:53:32.231Z,12.21
2022-11-25T12:54:32.226Z,12.27
2022-11-25T12:55:32.210Z,12.14
2022-11-25T12:56:32.997Z,12.19
2022-11-25T12:57:33.494Z,12.19
2022-11-25T12:58:33.102Z,12.20
2022-11-25T12:59:32.165Z,12.10
2022-11-25T13:00:47.574Z,12.13
2022-11-25T13:01:33.236Z,12.28
2022-11-25T13:02:33.087Z,12.28
2022-11-25T13:03:32.187Z,12.28
2022-11-25T13:04:32.127Z,12.20
2022-11-25T13:05:40.601Z,12.34
2022-11-25T13:06:34.007Z,12.29
2022-11-25T13:07:32.208Z,12.28
2022-11-25T13:08:32.094Z,12.34
2022-11-25T13:09:32.089Z,12.24
2022-11-25T13:10:32.058Z,12.29
2022-11-25T13:11:32.428Z,12.28
2022-11-25T13:12:32.445Z,12.34
2022-11-25T13:13:32.323Z,12.28
2022-11-25T13:14:32.333Z,12.32
2022-11-25T13:15:32.895Z,12.32
2022-11-25T13:16:32.626Z,12.29
2022-11-25T13:17:32.166Z,12.28
2022-11-25T13:18:31.968Z,12.29
2022-11-25T13:19:31.975Z,12.24
2022-11-25T13:20:31.941Z,12.29
2022-11-25T13:21:31.931Z,12.28
2022-11-25T13:22:31.928Z,12.32
2022-11-25T13:23:31.915Z,12.21
2022-11-25T13:24:31.928Z,12.17
2022-11-25T13:25:31.931Z,12.20
2022-11-25T13:26:31.953Z,12.17
2022-11-25T13:27:31.914Z,12.34
2022-11-25T13:28:31.889Z,12.21
2022-11-25T13:29:31.836Z,12.23
2022-11-25T13:30:31.891Z,12.17
2022-11-25T13:31:31.868Z,12.16
2022-11-25T13:32:31.834Z,12.21
2022-11-25T13:33:31.800Z,12.10
2022-11-25T13:34:31.794Z,12.10
2022-11-25T13:35:31.781Z,12.01
2022-11-25T13:36:31.773Z,12.09
2022-11-25T13:37:36.178Z,12.02
2022-11-25T13:38:31.755Z,11.99
2022-11-25T13:39:31.736Z,12.02
2022-11-25T13:40:31.760Z,11.94
2022-11-25T13:41:31.785Z,11.90
2022-11-25T13:42:31.711Z,11.88
2022-11-25T13:43:31.704Z,11.99
2022-11-25T13:44:31.693Z,11.90
2022-11-25T13:45:31.790Z,11.88
2022-11-25T13:46:31.705Z,11.96
2022-11-25T13:47:35.053Z,11.94
2022-11-25T13:48:33.503Z,11.94
2022-11-25T13:49:31.631Z,11.96
2022-11-25T13:51:10.595Z,11.95
2022-11-25T13:51:35.620Z,12.07
2022-11-25T13:52:31.601Z,12.01
2022-11-25T13:53:31.689Z,12.10
2022-11-25T13:54:32.479Z,11.99
2022-11-25T13:55:31.578Z,11.96
2022-11-25T13:56:31.572Z,12.04
2022-11-25T13:57:32.557Z,12.04
2022-11-25T13:58:31.570Z,12.02
2022-11-25T13:59:31.620Z,12.05
2022-11-25T14:00:31.578Z,12.10
2022-11-25T14:01:31.692Z,11.98
2022-11-25T14:02:31.732Z,11.99
2022-11-25T14:03:31.569Z,12.04
2022-11-25T14:04:31.470Z,12.10
2022-11-25T14:05:31.504Z,12.14
2022-11-25T14:06:31.461Z,12.13
2022-11-25T14:07:31.663Z,12.12
2022-11-25T14:08:31.628Z,12.10
2022-11-25T14:09:31.434Z,12.14
2022-11-25T14:10:31.549Z,12.14
2022-11-25T14:11:31.503Z,12.16
2022-11-25T14:12:31.484Z,12.17
2022-11-25T14:13:31.396Z,12.24
2022-11-25T14:14:31.606Z,12.23
2022-11-25T14:15:31.568Z,12.24
2022-11-25T14:16:31.408Z,12.24
2022-11-25T14:17:31.406Z,12.12
2022-11-25T14:19:11.936Z,12.23
2022-11-25T14:20:02.138Z,12.28
2022-11-25T14:20:32.982Z,12.19
2022-11-25T14:21:31.302Z,12.13
2022-11-25T14:22:31.284Z,12.16
2022-11-25T14:23:32.064Z,12.13
2022-11-25T14:24:31.247Z,12.21
2022-11-25T14:25:31.483Z,12.13
2022-11-25T14:26:49.147Z,12.20
2022-11-25T14:27:32.251Z,12.14
2022-11-25T14:28:32.021Z,12.16
2022-11-25T14:29:31.987Z,12.13
2022-11-25T14:30:32.474Z,12.19
2022-11-25T14:31:32.018Z,12.19
2022-11-25T14:32:31.255Z,12.19
2022-11-25T14:33:31.225Z,12.14
2022-11-25T14:34:31.165Z,12.09
2022-11-25T14:35:31.160Z,12.02
2022-11-25T14:36:31.220Z,12.10
2022-11-25T14:37:31.170Z,12.02
2022-11-25T14:38:31.124Z,12.12
2022-11-25T14:39:31.127Z,12.05
2022-11-25T14:40:31.087Z,12.09
2022-11-25T14:41:31.205Z,12.04
2022-11-25T14:42:31.444Z,12.10
2022-11-25T14:43:31.386Z,11.98
2022-11-25T14:44:31.287Z,11.95
2022-11-25T14:45:31.108Z,11.96
2022-11-25T14:46:31.042Z,11.80
2022-11-25T14:47:34.630Z,11.91
2022-11-25T14:48:32.035Z,11.78
2022-11-25T14:49:59.713Z,11.72
2022-11-25T14:50:35.562Z,11.90
2022-11-25T14:51:31.018Z,11.65
2022-11-25T14:52:30.945Z,11.67
2022-11-25T14:53:30.937Z,11.67
2022-11-25T14:54:31.013Z,11.70
2022-11-25T14:55:30.920Z,11.67
2022-11-25T14:56:30.936Z,11.64
2022-11-25T14:57:30.978Z,11.73
2022-11-25T14:58:30.898Z,11.55
2022-11-25T14:59:30.891Z,11.70
2022-11-25T15:00:30.861Z,11.61
2022-11-25T15:01:30.900Z,11.49
2022-11-25T15:02:30.976Z,11.55
2022-11-25T15:03:30.865Z,11.52
2022-11-25T15:04:30.873Z,11.49
2022-11-25T15:05:30.829Z,11.47
2022-11-25T15:06:30.822Z,11.42
2022-11-25T15:07:31.521Z,11.39
2022-11-25T15:08:30.797Z,11.37
2022-11-25T15:09:30.772Z,11.35
2022-11-25T15:10:30.773Z,11.29
2022-11-25T15:11:30.744Z,11.27
2022-11-25T15:12:30.730Z,11.14
2022-11-25T15:13:30.724Z,11.19
2022-11-25T15:14:30.748Z,11.11
2022-11-25T15:15:30.715Z,11.10
2022-11-25T15:16:30.784Z,11.04
2022-11-25T15:17:30.688Z,10.85
2022-11-25T15:18:30.685Z,10.92
2022-11-25T15:19:33.576Z,10.94
2022-11-25T15:20:30.666Z,10.82
2022-11-25T15:21:30.641Z,10.73
2022-11-25T15:22:30.666Z,10.78
2022-11-25T15:23:30.619Z,10.66
2022-11-25T15:24:30.628Z,10.68
2022-11-25T15:25:30.593Z,10.73
2022-11-25T15:26:30.635Z,10.66
2022-11-25T15:27:30.573Z,10.53
2022-11-25T15:28:30.566Z,10.56
2022-11-25T15:29:30.584Z,10.55
2022-11-25T15:30:30.543Z,10.52
2022-11-25T15:31:30.587Z,10.47
2022-11-25T15:32:30.554Z,10.47
2022-11-25T15:33:30.512Z,10.38
2022-11-25T15:34:30.488Z,10.30
2022-11-25T15:35:30.490Z,10.34
2022-11-25T15:36:30.482Z,10.30
2022-11-25T15:37:30.510Z,10.29
2022-11-25T15:38:30.470Z,10.27
2022-11-25T15:39:30.438Z,10.17
2022-11-25T15:40:30.426Z,10.14
2022-11-25T15:41:30.479Z,10.20
2022-11-25T15:42:30.408Z,10.12
2022-11-25T15:43:30.433Z,10.12
2022-11-25T15:44:30.383Z,10.04
2022-11-25T15:45:30.399Z,10.08
2022-11-25T15:46:30.361Z,10.11
2022-11-25T15:47:30.383Z,10.08
2022-11-25T15:48:30.346Z,10.11
2022-11-25T15:49:30.362Z,10.04
2022-11-25T15:50:30.322Z,10.08
2022-11-25T15:51:30.310Z,9.99
2022-11-25T15:52:30.310Z,10.02
2022-11-25T15:53:33.306Z,10.02
2022-11-25T15:54:30.300Z,10.01
2022-11-25T15:55:30.294Z,9.97
2022-11-25T15:56:30.274Z,9.96
2022-11-25T15:57:30.241Z,9.93
2022-11-25T15:58:30.240Z,9.84
2022-11-25T15:59:30.239Z,9.83
2022-11-25T16:00:30.218Z,9.86
2022-11-25T16:01:30.387Z,9.86
2022-11-25T16:02:30.230Z,9.84
2022-11-25T16:03:30.196Z,9.84
2022-11-25T16:04:30.170Z,9.78
2022-11-25T16:05:30.183Z,9.83
2022-11-25T16:06:30.144Z,9.78
2022-11-25T16:07:30.220Z,9.74
2022-11-25T16:08:30.136Z,9.76
2022-11-25T16:09:30.123Z,9.75
2022-11-25T16:10:30.125Z,9.66
2022-11-25T16:11:30.097Z,9.68
2022-11-25T16:12:30.088Z,9.71
2022-11-25T16:13:30.103Z,9.68
2022-11-25T16:14:30.066Z,9.75
2022-11-25T16:15:30.061Z,9.61
2022-11-25T16:16:30.211Z,9.68
2022-11-25T16:17:30.040Z,9.61
2022-11-25T16:18:40.199Z,9.61
2022-11-25T16:19:35.140Z,9.71
2022-11-25T16:20:31.006Z,9.75
2022-11-25T16:21:30.005Z,9.68
2022-11-25T16:22:29.970Z,9.76
2022-11-25T16:23:29.968Z,9.76
2022-11-25T16:24:29.951Z,9.69
2022-11-25T16:25:30.040Z,9.84
2022-11-25T16:26:30.051Z,9.78
2022-11-25T16:27:30.064Z,9.69
2022-11-25T16:28:29.908Z,9.74
2022-11-25T16:29:29.914Z,9.71
2022-11-25T16:30:29.887Z,9.72
2022-11-25T16:31:29.925Z,9.78
2022-11-25T16:32:29.882Z,9.84
2022-11-25T16:33:29.860Z,9.79
2022-11-25T16:34:29.849Z,9.79
2022-11-25T16:35:29.838Z,9.83
2022-11-25T16:36:29.828Z,9.78
2022-11-25T16:37:29.859Z,9.79
2022-11-25T16:38:29.804Z,9.79
2022-11-25T16:39:29.787Z,9.78
2022-11-25T16:40:29.790Z,9.83
2022-11-25T16:41:29.767Z,9.79
2022-11-25T16:42:29.793Z,9.83
2022-11-25T16:43:29.790Z,9.89
2022-11-25T16:44:29.753Z,9.84
2022-11-25T16:45:29.803Z,9.86
2022-11-25T16:46:29.841Z,9.81
2022-11-25T16:47:29.733Z,9.79
2022-11-25T16:48:29.727Z,9.86
2022-11-25T16:49:29.723Z,9.87
2022-11-25T16:50:29.677Z,9.84
2022-11-25T16:51:29.657Z,9.81
2022-11-25T16:52:29.649Z,9.84
2022-11-25T16:53:29.664Z,9.84
2022-11-25T16:54:29.632Z,9.79
2022-11-25T16:55:29.666Z,9.83
2022-11-25T16:56:29.609Z,9.86
2022-11-25T16:57:29.602Z,9.89
2022-11-25T16:58:29.638Z,9.83
2022-11-25T16:59:29.596Z,9.79
2022-11-25T17:00:29.567Z,9.89
2022-11-25T17:01:29.631Z,9.81
2022-11-25T17:02:29.664Z,9.81
2022-11-25T17:03:29.534Z,9.78
2022-11-25T17:04:29.519Z,9.78
2022-11-25T17:05:29.554Z,9.78
2022-11-25T17:06:29.514Z,9.76
2022-11-25T17:07:33.647Z,9.68
2022-11-25T17:08:29.590Z,9.75
2022-11-25T17:09:29.463Z,9.75
2022-11-25T17:10:29.459Z,9.86
2022-11-25T17:11:29.501Z,9.81
2022-11-25T17:12:29.435Z,9.83
2022-11-25T17:13:29.420Z,9.87
2022-11-25T17:14:29.691Z,9.83
2022-11-25T17:15:29.824Z,9.81
2022-11-25T17:16:29.508Z,9.89
2022-11-25T17:17:29.506Z,9.90
2022-11-25T17:18:29.374Z,9.97
2022-11-25T17:19:29.499Z,9.97
2022-11-25T17:20:29.377Z,10.02
2022-11-25T17:21:29.342Z,9.94
2022-11-25T17:22:32.332Z,9.97
2022-11-25T17:23:30.363Z,9.93
2022-11-25T17:24:29.300Z,9.89
2022-11-25T17:25:35.279Z,9.90
2022-11-25T17:26:29.288Z,9.78
2022-11-25T17:27:29.269Z,9.83
2022-11-25T17:28:29.263Z,9.86
2022-11-25T17:29:29.282Z,9.87
2022-11-25T17:30:29.260Z,9.79
2022-11-25T17:31:29.283Z,9.83
2022-11-25T17:32:29.255Z,9.72
2022-11-25T17:33:29.204Z,9.71
2022-11-25T17:34:29.216Z,9.68
2022-11-25T17:35:29.218Z,9.69
2022-11-25T17:36:29.177Z,9.68
2022-11-25T17:37:29.165Z,9.69
2022-11-25T17:38:29.163Z,9.81
2022-11-25T17:39:29.168Z,9.69
2022-11-25T17:40:29.141Z,9.76
2022-11-25T17:41:29.138Z,9.76
2022-11-25T17:42:29.108Z,9.74
2022-11-25T17:43:34.331Z,9.72
2022-11-25T17:44:30.104Z,9.74
2022-11-25T17:45:29.135Z,9.69
2022-11-25T17:46:29.128Z,9.68
2022-11-25T17:47:29.079Z,9.61
2022-11-25T17:48:29.041Z,9.57
2022-11-25T17:49:29.025Z,9.64
2022-11-25T17:50:29.040Z,9.50
2022-11-25T17:51:29.007Z,9.60
2022-11-25T17:52:29.022Z,9.50
2022-11-25T17:53:29.024Z,9.60
2022-11-25T17:54:28.990Z,9.57
2022-11-25T17:55:29.007Z,9.43
2022-11-25T17:56:28.955Z,9.47
2022-11-25T17:57:28.959Z,9.50
2022-11-25T17:58:28.939Z,9.36
2022-11-25T17:59:28.974Z,9.39
2022-11-25T18:00:28.914Z,9.35
2022-11-25T18:01:28.988Z,9.31
2022-11-25T18:02:29.083Z,9.43
2022-11-25T18:03:28.899Z,9.33
2022-11-25T18:04:28.871Z,9.32
2022-11-25T18:05:28.891Z,9.39
2022-11-25T18:06:28.849Z,9.33
2022-11-25T18:07:28.884Z,9.36
2022-11-25T18:08:28.844Z,9.26
2022-11-25T18:09:28.819Z,9.33
2022-11-25T18:10:28.827Z,9.31
2022-11-25T18:11:28.818Z,9.33
2022-11-25T18:12:28.792Z,9.32
2022-11-25T18:13:28.787Z,9.35
2022-11-25T18:14:28.763Z,9.39
2022-11-25T18:15:28.750Z,9.40
2022-11-25T18:16:28.818Z,9.54
2022-11-25T18:17:28.763Z,9.47
2022-11-25T18:18:28.739Z,9.48
2022-11-25T18:19:28.727Z,9.47
2022-11-25T18:20:28.716Z,9.51
2022-11-25T18:21:28.683Z,9.56
2022-11-25T18:22:28.683Z,9.48
2022-11-25T18:23:28.693Z,9.56
2022-11-25T18:24:28.665Z,9.48
2022-11-25T18:25:28.656Z,9.42
2022-11-25T18:26:28.633Z,9.60
2022-11-25T18:27:28.628Z,9.56
2022-11-25T18:28:28.609Z,9.51
2022-11-25T18:29:28.625Z,9.54
2022-11-25T18:30:28.658Z,9.47
2022-11-25T18:31:28.695Z,9.61
2022-11-25T18:32:28.607Z,9.51
2022-11-25T18:33:28.569Z,9.58
2022-11-25T18:34:28.564Z,9.58
2022-11-25T18:35:34.113Z,9.56
2022-11-25T18:36:29.524Z,9.75